📊 Raw Sensor Data

Showing records 45226 to 45250 of 85,050 total

ID Distance (ft) Battery V Battery A Int Temp (°F) Int Humid (%) Ext Temp (°F) Solar V RSSI SNR Time Stamp
39837 -- 4.08 35 63 40 65 4.50 -72 8 05/06/2025 07:30 AM
39836 -- 4.01 19 62 40 63 4.50 -70 8 05/06/2025 07:15 AM
39835 -- 4.02 6 60 40 63 4.60 -71 8 05/06/2025 07:01 AM
39834 16.0 3.99 0 57 40 62 4.50 -71 7 05/06/2025 06:45 AM
39833 16.0 3.93 0 54 42 57 4.60 -70 8 05/06/2025 06:30 AM
39832 -- 3.97 -8 53 43 56 4.50 -70 8 05/06/2025 06:15 AM
39831 16.0 3.92 -5 55 42 58 0.40 -70 8 05/06/2025 05:45 AM
39830 -- 3.98 -5 55 42 58 0.10 -69 8 05/06/2025 05:30 AM
39829 -- 3.93 -5 55 42 56 0.00 -70 8 05/06/2025 05:15 AM
39828 -- 3.93 -5 55 42 57 0.00 -70 8 05/06/2025 05:00 AM
39827 -- 3.93 -5 56 42 57 0.00 -70 8 05/06/2025 04:45 AM
39826 -- 3.99 -5 56 41 58 0.00 -70 8 05/06/2025 04:30 AM
39825 -- 3.93 -5 55 42 59 0.00 -72 8 05/06/2025 04:15 AM
39824 15.9 3.93 -5 54 43 57 0.10 -68 8 05/06/2025 04:00 AM
39823 16.0 3.93 -5 55 43 57 0.10 -70 8 05/06/2025 03:45 AM
39822 -- 3.93 -5 55 43 58 0.10 -70 8 05/06/2025 03:30 AM
39821 -- 3.99 -5 55 43 57 0.00 -70 8 05/06/2025 03:15 AM
39820 -- 3.93 -5 57 43 58 0.00 -69 8 05/06/2025 03:00 AM
39819 -- 3.99 -5 57 43 59 0.10 -71 8 05/06/2025 02:45 AM
39818 -- 3.94 -5 58 43 59 0.00 -69 8 05/06/2025 02:30 AM
39817 -- 3.93 -5 58 43 60 0.10 -68 8 05/06/2025 02:15 AM
39816 -- 3.94 -5 59 42 60 0.00 -70 8 05/06/2025 02:00 AM
39815 -- 3.94 -5 59 42 62 0.00 -69 8 05/06/2025 01:45 AM
39814 -- 3.94 -5 58 43 61 0.10 -70 8 05/06/2025 01:30 AM
39813 -- 4.00 -5 58 43 60 0.00 -71 8 05/06/2025 01:15 AM